Time;durP1;ratioP1;P1;durP2;ratioP2;P2;SDS_P1;SDS_P2;PMS_P1;PMS_P2;Temp;Humidity;BMP_temperature;BMP_pressure;BME280_temperature;BME280_humidity;BME280_pressure;Samples;Min_cycle;Max_cycle;Signal;HPM_P1;HPM_P2
2022/02/13 00:01:30;;;;;;;13.95;5.82;;;3.80;99.90;;;;;;5161161;22;20021;-71
2022/02/13 00:03:31;;;;;;;9.95;4.93;;;3.70;99.90;;;;;;5189231;22;20034;-71
2022/02/13 00:05:32;;;;;;;14.27;5.63;;;3.80;99.90;;;;;;5188368;22;20016;-72
2022/02/13 00:07:36;;;;;;;14.75;5.43;;;3.80;99.90;;;;;;5161979;22;20015;-71
2022/02/13 00:09:37;;;;;;;13.02;5.63;;;3.70;99.90;;;;;;5187059;22;20061;-71
2022/02/13 00:11:37;;;;;;;9.77;4.97;;;3.70;99.90;;;;;;5160838;22;20055;-71
2022/02/13 00:13:38;;;;;;;10.45;5.25;;;3.70;99.90;;;;;;5188853;22;20008;-71
2022/02/13 00:15:38;;;;;;;9.93;5.03;;;3.70;99.90;;;;;;5161107;22;20012;-72
2022/02/13 00:17:39;;;;;;;11.05;5.40;;;3.70;99.90;;;;;;5188437;22;20016;-71
2022/02/13 00:19:40;;;;;;;12.05;5.80;;;3.70;99.90;;;;;;5136801;23;24315;-71
2022/02/13 00:21:41;;;;;;;10.40;5.30;;;3.70;99.90;;;;;;5187702;22;20018;-71
2022/02/13 00:23:41;;;;;;;11.38;5.28;;;3.70;99.90;;;;;;5161503;22;20047;-72
2022/02/13 00:25:43;;;;;;;12.73;5.57;;;3.60;99.90;;;;;;5188282;22;20004;-71
2022/02/13 00:27:45;;;;;;;11.50;5.38;;;3.70;99.90;;;;;;5188821;22;20457;-71
2022/02/13 00:29:46;;;;;;;14.13;6.15;;;3.60;99.90;;;;;;5189168;22;20086;-71
2022/02/13 00:31:46;;;;;;;12.80;5.70;;;3.60;99.90;;;;;;5161221;22;20476;-72
2022/02/13 00:33:47;;;;;;;11.43;5.63;;;3.60;99.90;;;;;;5189202;22;20012;-71
2022/02/13 00:35:47;;;;;;;10.68;5.15;;;3.60;99.90;;;;;;5188276;22;20015;-71
2022/02/13 00:37:48;;;;;;;9.85;4.75;;;3.50;99.90;;;;;;5189193;22;20012;-71
2022/02/13 00:39:49;;;;;;;13.18;5.00;;;3.50;99.90;;;;;;5189223;22;20014;-71
2022/02/13 00:41:49;;;;;;;7.78;4.30;;;3.60;99.90;;;;;;5161742;22;20129;-72
2022/02/13 00:43:50;;;;;;;14.20;5.80;;;3.60;99.90;;;;;;5187736;22;20114;-71
2022/02/13 00:45:51;;;;;;;11.57;5.70;;;3.60;99.90;;;;;;5187626;22;20011;-71
2022/02/13 00:47:51;;;;;;;13.05;5.60;;;3.60;99.90;;;;;;5190418;22;20392;-71
2022/02/13 00:49:52;;;;;;;12.43;5.25;;;3.50;99.90;;;;;;5161859;22;20012;-71
2022/02/13 00:51:54;;;;;;;11.65;5.18;;;3.60;99.90;;;;;;5186088;22;20012;-71
2022/02/13 00:53:54;;;;;;;9.20;4.72;;;3.50;99.90;;;;;;5189638;22;20008;-71
2022/02/13 00:55:55;;;;;;;11.02;5.38;;;3.50;99.90;;;;;;5188960;22;20015;-71
2022/02/13 00:57:57;;;;;;;11.43;5.18;;;3.50;99.90;;;;;;5189526;22;20015;-72
2022/02/13 00:59:58;;;;;;;;;;;3.60;99.90;;;;;;5191731;22;20476;-72
2022/02/13 01:01:59;;;;;;;10.35;5.03;;;3.50;99.90;;;;;;5189568;22;19907;-71
2022/02/13 01:03:59;;;;;;;11.02;5.22;;;3.50;99.90;;;;;;5191143;22;20012;-71
2022/02/13 01:06:02;;;;;;;10.27;4.30;;;3.50;99.90;;;;;;5190236;22;20018;-71
2022/02/13 01:08:04;;;;;;;12.15;5.07;;;3.50;99.90;;;;;;5191196;22;20016;-72
2022/02/13 01:10:05;;;;;;;10.57;5.43;;;3.40;99.90;;;;;;5190208;22;20011;-71
2022/02/13 01:12:07;;;;;;;11.95;5.20;;;3.40;99.90;;;;;;5189904;22;20378;-71
2022/02/13 01:14:07;;;;;;;11.25;5.70;;;3.40;99.90;;;;;;5190368;22;20011;-71
2022/02/13 01:16:08;;;;;;;7.95;4.35;;;3.30;99.90;;;;;;5189666;22;20034;-71
2022/02/13 01:18:09;;;;;;;8.02;5.00;;;3.30;99.90;;;;;;5190618;22;20396;-71
2022/02/13 01:20:10;;;;;;;9.85;4.65;;;3.40;99.90;;;;;;5162154;22;20449;-71
2022/02/13 01:22:10;;;;;;;12.02;4.88;;;3.40;99.90;;;;;;5189877;22;20015;-71
2022/02/13 01:24:11;;;;;;;10.63;4.93;;;3.40;99.90;;;;;;5189720;22;20074;-71
2022/02/13 01:26:12;;;;;;;11.43;4.85;;;3.40;99.90;;;;;;5190105;22;20421;-71
2022/02/13 01:28:13;;;;;;;8.25;4.15;;;3.40;99.90;;;;;;5190595;22;20012;-71
2022/02/13 01:30:13;;;;;;;12.85;5.00;;;3.40;99.90;;;;;;5189744;22;20008;-71
2022/02/13 01:32:14;;;;;;;10.48;5.18;;;3.40;99.90;;;;;;5163235;22;20012;-71
2022/02/13 01:34:18;;;;;;;9.65;5.15;;;3.40;99.90;;;;;;5163074;22;20522;-71
2022/02/13 01:36:19;;;;;;;10.63;4.45;;;3.40;99.90;;;;;;5187824;22;20015;-71
2022/02/13 01:38:19;;;;;;;7.70;4.38;;;3.40;99.90;;;;;;5190109;22;20008;-72
2022/02/13 01:40:20;;;;;;;11.40;5.10;;;3.40;99.90;;;;;;5189447;22;20056;-71
2022/02/13 01:42:20;;;;;;;8.63;4.90;;;3.30;99.90;;;;;;5163197;22;20035;-71
2022/02/13 01:44:29;;;;;;;12.60;4.72;;;3.20;99.90;;;;;;5163089;22;20315;-71
2022/02/13 01:46:30;;;;;;;11.63;4.93;;;3.30;99.90;;;;;;5162303;22;20058;-71
2022/02/13 01:48:32;;;;;;;10.05;4.68;;;3.30;99.90;;;;;;5190223;22;20019;-72
2022/02/13 01:50:32;;;;;;;9.88;4.43;;;3.40;99.90;;;;;;5189717;22;20042;-71
2022/02/13 01:52:33;;;;;;;9.70;4.65;;;3.40;99.90;;;;;;5163260;22;20008;-71
2022/02/13 01:54:34;;;;;;;8.40;4.72;;;3.30;99.90;;;;;;5190381;22;20464;-71
2022/02/13 01:56:35;;;;;;;12.82;4.72;;;3.30;99.90;;;;;;5189184;22;20015;-71
2022/02/13 01:58:35;;;;;;;8.77;4.47;;;3.30;99.90;;;;;;5189939;22;20027;-71
2022/02/13 02:00:36;;;;;;;11.23;4.82;;;3.30;99.90;;;;;;5190154;22;20551;-70
2022/02/13 02:02:36;;;;;;;11.85;5.00;;;3.30;99.90;;;;;;5163093;22;20012;-71
2022/02/13 02:04:38;;;;;;;10.85;4.32;;;3.30;99.90;;;;;;5190194;22;20012;-70
2022/02/13 02:06:38;;;;;;;11.18;4.93;;;3.30;99.90;;;;;;5189443;22;20423;-70
2022/02/13 02:08:39;;;;;;;12.20;4.68;;;3.30;99.90;;;;;;5190299;22;20045;-70
2022/02/13 02:10:41;;;;;;;7.95;4.47;;;3.30;99.90;;;;;;5189452;22;20079;-70
2022/02/13 02:12:42;;;;;;;9.65;4.15;;;3.30;99.90;;;;;;5189525;22;20011;-70
2022/02/13 02:14:43;;;;;;;8.90;4.72;;;3.20;99.90;;;;;;5138291;23;20013;-71
2022/02/13 02:16:45;;;;;;;7.63;4.13;;;3.20;99.90;;;;;;5189873;22;20037;-70
2022/02/13 02:18:46;;;;;;;11.40;4.53;;;3.30;99.90;;;;;;5190759;22;20510;-70
2022/02/13 02:20:48;;;;;;;15.75;4.53;;;3.30;99.90;;;;;;5189571;22;20008;-70
2022/02/13 02:22:58;;;;;;;8.43;4.67;;;3.20;99.90;;;;;;5190341;22;20011;-70
2022/02/13 02:24:59;;;;;;;7.88;4.47;;;3.20;99.90;;;;;;5189852;22;20230;-70
2022/02/13 02:27:00;;;;;;;11.55;4.63;;;3.20;99.90;;;;;;5190598;22;20018;-70
2022/02/13 02:29:00;;;;;;;11.38;4.82;;;3.20;99.90;;;;;;5163313;22;20031;-71
2022/02/13 02:31:02;;;;;;;9.85;4.65;;;3.30;99.90;;;;;;5187520;22;20019;-70
2022/02/13 02:33:03;;;;;;;9.70;4.50;;;3.30;99.90;;;;;;5137912;23;20031;-71
2022/02/13 02:35:04;;;;;;;10.15;4.43;;;3.30;99.90;;;;;;5190064;22;20012;-70
2022/02/13 02:37:06;;;;;;;13.00;5.55;;;3.30;99.90;;;;;;5189752;22;20015;-70
2022/02/13 02:39:06;;;;;;;14.47;5.47;;;3.20;99.90;;;;;;5162864;22;20012;-70
2022/02/13 02:41:07;;;;;;;12.57;5.10;;;3.20;99.90;;;;;;5161916;22;20238;-70
2022/02/13 02:43:08;;;;;;;11.57;5.60;;;3.20;99.90;;;;;;5189740;22;20011;-70
2022/02/13 02:45:13;;;;;;;13.30;4.50;;;3.20;99.90;;;;;;5162111;22;20019;-70
2022/02/13 02:47:13;;;;;;;11.00;4.95;;;3.10;99.90;;;;;;5189083;22;20019;-71
2022/02/13 02:49:14;;;;;;;9.45;5.00;;;3.10;99.90;;;;;;5190327;22;20384;-71
2022/02/13 02:51:15;;;;;;;10.95;4.70;;;3.00;99.90;;;;;;5189563;22;20015;-70
2022/02/13 02:53:16;;;;;;;11.88;5.25;;;3.00;99.90;;;;;;5189449;22;20437;-70
2022/02/13 02:55:16;;;;;;;10.25;4.93;;;2.90;99.90;;;;;;5189002;22;20007;-70
2022/02/13 02:57:17;;;;;;;11.35;5.03;;;3.00;99.90;;;;;;5189816;22;20157;-70
2022/02/13 02:59:18;;;;;;;9.15;4.82;;;3.00;99.90;;;;;;5189413;22;20081;-70
2022/02/13 03:01:19;;;;;;;7.38;4.68;;;3.00;99.90;;;;;;5188863;22;20448;-70
2022/02/13 03:03:20;;;;;;;9.13;4.35;;;3.00;99.90;;;;;;5162056;22;20008;-71
2022/02/13 03:05:21;;;;;;;8.70;4.60;;;3.00;99.90;;;;;;5136680;23;20013;-70
2022/02/13 03:07:21;;;;;;;11.20;5.32;;;3.00;99.90;;;;;;5189149;22;20022;-71
2022/02/13 03:09:22;;;;;;;11.02;4.65;;;2.90;99.90;;;;;;5189147;22;20015;-71
2022/02/13 03:11:23;;;;;;;10.27;4.95;;;3.00;99.90;;;;;;5188042;22;20029;-71
2022/02/13 03:13:24;;;;;;;14.50;5.05;;;2.90;99.90;;;;;;5162371;22;20018;-70
2022/02/13 03:15:24;;;;;;;7.45;4.30;;;2.90;99.90;;;;;;5161941;22;20349;-70
2022/02/13 03:17:25;;;;;;;7.60;4.35;;;2.90;99.90;;;;;;5190061;22;20024;-70
2022/02/13 03:19:25;;;;;;;9.43;4.22;;;2.90;99.90;;;;;;5162521;22;20087;-71
2022/02/13 03:21:27;;;;;;;11.48;4.95;;;2.90;99.90;;;;;;5161012;22;20404;-70
2022/02/13 03:23:27;;;;;;;8.37;3.83;;;2.90;99.90;;;;;;5190022;22;20034;-70
2022/02/13 03:25:28;;;;;;;11.80;5.35;;;2.90;99.90;;;;;;5189335;22;21002;-70
2022/02/13 03:27:29;;;;;;;12.80;5.32;;;2.80;99.90;;;;;;5189752;22;20046;-70
2022/02/13 03:29:30;;;;;;;12.93;4.95;;;2.80;99.90;;;;;;5161928;22;20079;-70
2022/02/13 03:31:30;;;;;;;12.50;4.80;;;2.80;99.90;;;;;;5162166;22;20027;-70
2022/02/13 03:33:31;;;;;;;7.53;4.05;;;2.80;99.90;;;;;;5189633;22;20437;-70
2022/02/13 03:35:32;;;;;;;11.10;4.60;;;2.80;99.90;;;;;;5161496;22;20027;-71
2022/02/13 03:37:33;;;;;;;11.65;4.38;;;2.80;99.90;;;;;;5187781;22;20023;-70
2022/02/13 03:39:33;;;;;;;12.35;5.07;;;2.80;99.90;;;;;;5189841;22;20019;-70
2022/02/13 03:41:34;;;;;;;10.20;4.70;;;2.80;99.90;;;;;;5162652;22;20008;-71
2022/02/13 03:43:34;;;;;;;8.02;4.15;;;2.80;99.90;;;;;;5162509;22;20008;-70
2022/02/13 03:45:36;;;;;;;8.38;4.55;;;2.80;99.90;;;;;;5189025;22;20066;-71
2022/02/13 03:47:37;;;;;;;11.35;4.60;;;2.80;99.90;;;;;;5190090;22;20007;-70
2022/02/13 03:49:37;;;;;;;10.75;5.15;;;2.80;99.90;;;;;;5162445;22;20008;-70
2022/02/13 03:51:38;;;;;;;9.85;4.13;;;2.80;99.90;;;;;;5188756;22;20065;-70
2022/02/13 03:53:38;;;;;;;8.38;4.15;;;2.70;99.90;;;;;;5189179;22;20015;-70
2022/02/13 03:55:39;;;;;;;9.18;4.47;;;2.70;99.90;;;;;;5162021;22;20012;-70
2022/02/13 03:57:39;;;;;;;8.95;4.65;;;2.70;99.90;;;;;;5187878;22;20015;-71
2022/02/13 03:59:40;;;;;;;12.40;4.80;;;2.70;99.90;;;;;;5189236;22;20027;-70
2022/02/13 04:01:41;;;;;;;11.45;5.03;;;2.60;99.90;;;;;;5188176;22;20008;-71
2022/02/13 04:03:41;;;;;;;9.43;4.60;;;2.60;99.90;;;;;;5162249;22;20008;-70
2022/02/13 04:05:42;;;;;;;12.73;4.80;;;2.60;99.90;;;;;;5187898;22;20004;-70
2022/02/13 04:07:43;;;;;;;12.15;5.30;;;2.60;99.90;;;;;;5190061;22;20134;-70
2022/02/13 04:09:44;;;;;;;11.88;4.53;;;2.60;99.90;;;;;;5162601;22;20012;-70
2022/02/13 04:11:45;;;;;;;9.30;5.20;;;2.60;99.90;;;;;;5188585;22;20010;-71
2022/02/13 04:13:45;;;;;;;10.95;4.65;;;2.50;99.90;;;;;;5189422;22;20062;-71
2022/02/13 04:15:46;;;;;;;8.60;4.05;;;2.50;99.90;;;;;;5189054;22;20087;-70
2022/02/13 04:17:46;;;;;;;11.77;4.63;;;2.50;99.90;;;;;;5189420;22;20716;-70
2022/02/13 04:19:47;;;;;;;8.23;4.38;;;2.50;99.90;;;;;;5188658;22;20429;-70
2022/02/13 04:21:47;;;;;;;9.15;4.60;;;2.50;99.90;;;;;;5160696;22;20066;-70
2022/02/13 04:23:48;;;;;;;9.20;4.50;;;2.50;99.90;;;;;;5188171;22;20015;-70
2022/02/13 04:25:49;;;;;;;10.63;4.72;;;2.50;99.90;;;;;;5188317;22;20015;-70
2022/02/13 04:27:49;;;;;;;11.13;5.82;;;2.50;99.90;;;;;;5189031;22;20015;-70
2022/02/13 04:29:50;;;;;;;9.02;4.30;;;2.50;99.90;;;;;;5188748;22;20003;-70
2022/02/13 04:31:50;;;;;;;12.10;5.07;;;2.50;99.90;;;;;;5187928;22;20527;-70
2022/02/13 04:33:51;;;;;;;9.25;4.40;;;2.50;99.90;;;;;;5189102;22;20012;-70
2022/02/13 04:35:52;;;;;;;10.25;4.55;;;2.50;99.90;;;;;;5161783;22;20016;-70
2022/02/13 04:37:55;;;;;;;10.38;4.50;;;2.50;99.90;;;;;;5188963;22;20054;-70
2022/02/13 04:39:56;;;;;;;10.57;4.75;;;2.50;99.90;;;;;;5188025;22;20083;-70
2022/02/13 04:41:57;;;;;;;8.10;4.30;;;2.40;99.90;;;;;;5189447;22;20065;-70
2022/02/13 04:43:57;;;;;;;10.48;4.80;;;2.40;99.90;;;;;;5162395;22;20005;-71
2022/02/13 04:45:58;;;;;;;7.35;4.53;;;2.40;99.90;;;;;;5161036;23;20008;-70
2022/02/13 04:47:58;;;;;;;10.18;4.22;;;2.40;99.90;;;;;;5189250;22;20011;-71
2022/02/13 04:49:59;;;;;;;10.05;4.18;;;2.30;99.90;;;;;;5189849;22;20008;-70
2022/02/13 04:52:00;;;;;;;10.55;4.45;;;2.30;99.90;;;;;;5189143;22;20074;-70
2022/02/13 04:54:01;;;;;;;9.73;4.70;;;2.30;99.90;;;;;;5189201;22;20109;-70
2022/02/13 04:56:04;;;;;;;11.02;4.82;;;2.40;99.90;;;;;;5188858;22;20018;-70
2022/02/13 04:58:05;;;;;;;8.82;4.43;;;2.40;99.90;;;;;;5188865;22;20480;-70
2022/02/13 05:00:06;;;;;;;9.60;4.60;;;2.40;99.90;;;;;;5188749;22;20016;-70
2022/02/13 05:02:08;;;;;;;11.17;4.87;;;2.40;99.90;;;;;;5187343;22;20079;-70
2022/02/13 05:04:08;;;;;;;11.45;4.82;;;2.30;99.90;;;;;;5188733;22;20477;-70
2022/02/13 05:06:09;;;;;;;12.27;4.68;;;2.30;99.90;;;;;;5188081;22;20020;-70
2022/02/13 05:08:09;;;;;;;6.93;4.30;;;2.30;99.90;;;;;;5188094;22;20022;-71
2022/02/13 05:10:11;;;;;;;8.90;4.05;;;2.30;99.90;;;;;;5188341;22;20012;-70
2022/02/13 05:12:11;;;;;;;8.70;4.47;;;2.40;99.90;;;;;;5162148;22;20016;-70
2022/02/13 05:14:12;;;;;;;11.30;3.92;;;2.40;99.90;;;;;;5189021;22;20445;-70
2022/02/13 05:16:13;;;;;;;6.95;4.43;;;2.30;99.90;;;;;;5187364;22;20015;-70
2022/02/13 05:18:14;;;;;;;9.20;4.30;;;2.30;99.90;;;;;;5161616;22;20362;-70
2022/02/13 05:20:14;;;;;;;8.07;4.20;;;2.40;99.90;;;;;;5188884;22;20497;-70
2022/02/13 05:22:16;;;;;;;9.43;4.65;;;2.40;99.90;;;;;;5188927;22;20460;-70
2022/02/13 05:24:17;;;;;;;10.90;4.63;;;2.40;99.90;;;;;;5188792;22;20018;-71
2022/02/13 05:26:18;;;;;;;9.88;4.82;;;2.40;99.90;;;;;;5188282;22;20012;-70
2022/02/13 05:28:18;;;;;;;9.93;4.03;;;2.40;99.90;;;;;;5188847;22;20330;-70
2022/02/13 05:30:19;;;;;;;8.95;4.28;;;2.50;99.90;;;;;;5187755;22;20426;-71
2022/02/13 05:32:20;;;;;;;7.63;4.10;;;2.40;99.90;;;;;;5188352;22;20349;-70
2022/02/13 05:34:20;;;;;;;7.63;4.05;;;2.40;99.90;;;;;;5161389;22;20449;-71
2022/02/13 05:36:21;;;;;;;5.85;3.80;;;2.50;99.90;;;;;;5187704;22;20073;-70
2022/02/13 05:38:21;;;;;;;8.45;4.35;;;2.40;99.90;;;;;;5188268;22;20008;-71
2022/02/13 05:40:22;;;;;;;6.55;3.67;;;2.50;99.90;;;;;;5160633;22;20080;-70
2022/02/13 05:42:24;;;;;;;9.48;4.13;;;2.50;99.90;;;;;;5161146;22;20000;-71
2022/02/13 05:44:24;;;;;;;8.68;3.97;;;2.50;99.90;;;;;;5188765;22;20012;-70
2022/02/13 05:46:25;;;;;;;6.43;3.80;;;2.50;99.90;;;;;;5188918;22;20000;-70
2022/02/13 05:48:26;;;;;;;7.53;3.85;;;2.50;99.90;;;;;;5191041;22;20314;-71
2022/02/13 05:50:26;;;;;;;9.77;3.97;;;2.50;99.90;;;;;;5161985;22;20035;-71
2022/02/13 05:52:27;;;;;;;7.25;4.07;;;2.50;99.90;;;;;;5190498;22;20011;-71
2022/02/13 05:54:27;;;;;;;7.38;4.50;;;2.60;99.90;;;;;;5190733;22;20007;-70
2022/02/13 05:56:28;;;;;;;8.18;4.60;;;2.60;99.90;;;;;;5190096;22;20000;-70
2022/02/13 05:58:29;;;;;;;6.93;3.90;;;2.50;99.90;;;;;;5190288;22;20031;-71
2022/02/13 06:00:29;;;;;;;8.35;4.30;;;2.50;99.90;;;;;;5189883;22;20014;-71
2022/02/13 06:02:30;;;;;;;8.40;4.28;;;2.50;99.90;;;;;;5190250;22;20015;-71
2022/02/13 06:04:30;;;;;;;6.35;3.83;;;2.60;99.90;;;;;;5162822;22;20462;-71
2022/02/13 06:06:31;;;;;;;11.52;4.22;;;2.60;99.90;;;;;;5189664;22;20008;-70
2022/02/13 06:08:32;;;;;;;7.60;3.92;;;2.60;99.90;;;;;;5137952;23;20435;-70
2022/02/13 06:10:32;;;;;;;10.80;3.85;;;2.60;99.90;;;;;;5161805;22;20496;-70
2022/02/13 06:12:33;;;;;;;7.45;3.75;;;2.70;99.90;;;;;;5163220;22;20016;-70
2022/02/13 06:14:34;;;;;;;7.82;3.78;;;2.60;99.90;;;;;;5189603;22;20090;-70
2022/02/13 06:16:35;;;;;;;6.90;4.05;;;2.70;99.90;;;;;;5188023;22;20004;-70
2022/02/13 06:18:36;;;;;;;9.32;4.68;;;2.70;99.90;;;;;;5188749;22;20007;-70
2022/02/13 06:20:36;;;;;;;10.25;4.50;;;2.70;99.90;;;;;;5161426;22;20008;-70
2022/02/13 06:22:37;;;;;;;11.15;4.82;;;2.70;99.90;;;;;;5161080;22;20023;-70
2022/02/13 06:24:37;;;;;;;12.32;4.22;;;2.70;99.90;;;;;;5189599;22;20333;-71
2022/02/13 06:26:39;;;;;;;7.80;4.13;;;2.70;99.90;;;;;;5188843;22;20000;-71
2022/02/13 06:28:40;;;;;;;8.60;4.30;;;2.70;99.90;;;;;;5189500;22;20448;-71
2022/02/13 06:30:41;;;;;;;6.75;3.88;;;2.70;99.90;;;;;;5188496;22;20008;-71
2022/02/13 06:32:41;;;;;;;9.02;4.10;;;2.70;99.90;;;;;;5162792;22;20011;-71
2022/02/13 06:34:43;;;;;;;8.95;4.38;;;2.70;99.90;;;;;;5189168;22;20008;-71
2022/02/13 06:36:43;;;;;;;7.20;4.20;;;2.70;99.90;;;;;;5183625;22;20042;-71
2022/02/13 06:38:44;;;;;;;8.07;4.07;;;2.60;99.90;;;;;;5188386;22;20102;-71
2022/02/13 06:40:44;;;;;;;9.25;4.18;;;2.60;99.90;;;;;;5188777;22;20027;-71
2022/02/13 06:42:45;;;;;;;8.65;4.15;;;2.60;99.90;;;;;;5190256;22;20079;-71
2022/02/13 06:44:45;;;;;;;8.10;4.00;;;2.60;99.90;;;;;;5189896;22;20010;-71
2022/02/13 06:46:46;;;;;;;6.45;3.80;;;2.60;99.90;;;;;;5189132;22;20011;-71
2022/02/13 06:48:47;;;;;;;7.85;4.68;;;2.60;99.90;;;;;;5162345;22;20012;-71
2022/02/13 06:50:47;;;;;;;8.38;4.80;;;2.60;99.90;;;;;;5188622;22;20337;-71
2022/02/13 06:52:48;;;;;;;9.07;4.45;;;2.50;99.90;;;;;;5189605;22;20003;-71
2022/02/13 06:54:49;;;;;;;10.65;4.35;;;2.50;99.90;;;;;;5189669;22;20016;-71
2022/02/13 06:56:49;;;;;;;9.48;4.28;;;2.50;99.90;;;;;;5188882;22;20014;-71
2022/02/13 06:58:50;;;;;;;10.18;4.43;;;2.50;99.90;;;;;;5137189;23;20028;-71
2022/02/13 07:00:50;;;;;;;9.75;4.78;;;2.50;99.90;;;;;;5188736;22;20008;-71
2022/02/13 07:02:51;;;;;;;7.57;4.10;;;2.50;99.90;;;;;;5162343;22;20091;-71
2022/02/13 07:04:51;;;;;;;11.10;4.28;;;2.50;99.90;;;;;;5189139;22;20489;-71
2022/02/13 07:06:52;;;;;;;7.82;4.40;;;2.50;99.90;;;;;;5188962;22;20095;-71
2022/02/13 07:08:53;;;;;;;14.18;5.13;;;2.40;99.90;;;;;;5188887;22;20062;-71
2022/02/13 07:10:54;;;;;;;9.98;4.50;;;2.50;99.90;;;;;;5188782;22;20018;-71
2022/02/13 07:12:54;;;;;;;9.73;4.68;;;2.50;99.90;;;;;;5189583;22;20012;-71
2022/02/13 07:14:55;;;;;;;10.27;3.95;;;2.40;99.90;;;;;;5189434;22;20490;-71
2022/02/13 07:16:55;;;;;;;10.98;5.25;;;2.40;99.90;;;;;;5189095;22;20038;-71
2022/02/13 07:18:57;;;;;;;8.43;4.70;;;2.40;99.90;;;;;;5188827;22;20086;-71
2022/02/13 07:20:57;;;;;;;11.93;5.70;;;2.50;99.90;;;;;;5136941;23;20009;-71
2022/02/13 07:22:58;;;;;;;9.95;5.22;;;2.50;99.90;;;;;;5161847;22;20401;-71
2022/02/13 07:24:58;;;;;;;28.38;5.85;;;2.50;99.90;;;;;;5162057;22;20087;-71
2022/02/13 07:26:59;;;;;;;9.23;5.60;;;2.50;99.90;;;;;;5189397;22;20348;-71
2022/02/13 07:29:00;;;;;;;9.38;5.03;;;2.50;99.90;;;;;;5190150;22;20069;-71
2022/02/13 07:31:00;;;;;;;11.30;5.38;;;2.60;99.90;;;;;;5189627;22;20007;-71
2022/02/13 07:33:01;;;;;;;8.32;4.80;;;2.60;99.90;;;;;;5184539;22;20493;-71
2022/02/13 07:35:02;;;;;;;7.18;4.50;;;2.60;99.90;;;;;;5189873;22;20437;-71
2022/02/13 07:37:03;;;;;;;9.63;4.90;;;2.60;99.90;;;;;;5189275;22;20023;-69
2022/02/13 07:39:04;;;;;;;10.27;4.30;;;2.60;99.90;;;;;;5189479;22;20011;-70
2022/02/13 07:41:04;;;;;;;9.07;4.55;;;2.70;99.90;;;;;;5189015;22;20019;-70
2022/02/13 07:43:06;;;;;;;8.68;4.43;;;2.70;99.90;;;;;;5189789;22;20019;-70
2022/02/13 07:45:07;;;;;;;6.57;4.22;;;2.70;99.90;;;;;;5189569;22;20425;-70
2022/02/13 07:47:08;;;;;;;7.82;4.00;;;2.70;99.90;;;;;;5188007;22;20008;-70
2022/02/13 07:49:09;;;;;;;9.77;4.22;;;2.80;99.90;;;;;;5189245;22;20322;-70
2022/02/13 07:51:10;;;;;;;6.70;3.83;;;2.80;99.90;;;;;;5188681;22;20015;-70
2022/02/13 07:53:11;;;;;;;9.60;4.28;;;2.90;99.90;;;;;;5188908;22;20016;-70
2022/02/13 07:55:12;;;;;;;9.60;4.63;;;3.00;99.90;;;;;;5187787;22;20022;-70
2022/02/13 07:57:13;;;;;;;7.20;3.88;;;3.10;99.90;;;;;;5188432;22;20016;-70
2022/02/13 07:59:14;;;;;;;12.68;4.80;;;3.30;99.90;;;;;;5188552;22;20567;-70
2022/02/13 08:01:17;;;;;;;8.43;4.32;;;3.40;99.90;;;;;;5160349;22;20062;-70
2022/02/13 08:03:18;;;;;;;7.78;4.30;;;3.60;99.90;;;;;;5160968;22;20016;-70
2022/02/13 08:05:19;;;;;;;7.82;4.55;;;3.80;99.90;;;;;;5188316;22;20065;-70
2022/02/13 08:07:19;;;;;;;6.75;3.92;;;3.90;99.90;;;;;;5188907;22;20012;-70
2022/02/13 08:09:20;;;;;;;8.35;4.03;;;4.00;99.90;;;;;;5188870;22;20007;-70
2022/02/13 08:11:20;;;;;;;11.30;4.65;;;4.20;99.90;;;;;;5187770;22;20069;-70
2022/02/13 08:13:21;;;;;;;6.35;4.07;;;4.30;99.90;;;;;;5161136;22;20019;-70
2022/02/13 08:15:22;;;;;;;11.05;4.35;;;4.40;99.90;;;;;;5159831;22;20013;-70
2022/02/13 08:17:23;;;;;;;9.07;4.60;;;4.70;99.90;;;;;;5161507;22;20023;-70
2022/02/13 08:19:24;;;;;;;9.23;4.28;;;4.80;99.90;;;;;;5187903;22;20420;-70
2022/02/13 08:21:24;;;;;;;8.20;4.43;;;4.90;99.90;;;;;;5160154;22;20016;-70
2022/02/13 08:23:25;;;;;;;7.07;3.78;;;5.00;99.90;;;;;;5186977;22;20078;-70
2022/02/13 08:25:26;;;;;;;7.45;3.85;;;5.10;99.90;;;;;;5135391;23;20115;-70
2022/02/13 08:27:26;;;;;;;8.30;4.10;;;5.20;99.90;;;;;;5187857;22;20390;-70
2022/02/13 08:29:27;;;;;;;8.48;4.43;;;5.30;99.90;;;;;;5183066;22;20024;-69
2022/02/13 08:31:28;;;;;;;8.57;4.75;;;5.40;99.90;;;;;;5159293;23;20429;-71
2022/02/13 08:33:29;;;;;;;8.30;3.85;;;5.60;99.90;;;;;;5161874;22;20008;-70
2022/02/13 08:35:29;;;;;;;11.20;5.03;;;5.60;99.90;;;;;;5164027;22;20019;-70
2022/02/13 08:37:30;;;;;;;5.85;3.85;;;5.70;99.90;;;;;;5163252;22;20034;-70
2022/02/13 08:39:31;;;;;;;6.68;4.25;;;5.80;99.90;;;;;;5161476;22;20016;-70
2022/02/13 08:41:31;;;;;;;8.82;4.30;;;5.90;99.90;;;;;;5163370;22;20492;-70
2022/02/13 08:43:32;;;;;;;8.45;4.53;;;6.10;99.90;;;;;;5161603;23;20078;-70
2022/02/13 08:45:34;;;;;;;8.95;4.50;;;6.30;99.90;;;;;;5163803;22;20079;-70
2022/02/13 08:47:35;;;;;;;9.43;4.93;;;6.40;99.90;;;;;;5136117;23;20012;-70
2022/02/13 08:49:35;;;;;;;6.95;3.80;;;6.60;99.90;;;;;;5163309;22;20036;-70
2022/02/13 08:51:36;;;;;;;7.90;4.05;;;6.80;99.90;;;;;;5162732;22;20117;-70
2022/02/13 08:53:37;;;;;;;6.28;3.90;;;7.00;99.90;;;;;;5164506;22;20026;-70
2022/02/13 08:55:38;;;;;;;7.88;4.18;;;7.10;99.90;;;;;;5132774;23;20023;-70
2022/02/13 08:57:39;;;;;;;8.48;4.68;;;7.30;99.90;;;;;;5161438;23;20019;-70
2022/02/13 08:59:40;;;;;;;7.70;4.53;;;7.40;99.90;;;;;;5164320;22;20008;-70
2022/02/13 09:01:40;;;;;;;7.75;4.30;;;7.60;99.90;;;;;;5162045;22;20402;-70
2022/02/13 09:03:41;;;;;;;6.88;4.43;;;7.70;99.90;;;;;;5163810;22;20433;-70
2022/02/13 09:05:42;;;;;;;5.28;3.47;;;7.90;99.90;;;;;;5163058;22;20008;-70
2022/02/13 09:07:42;;;;;;;7.75;3.80;;;7.90;99.90;;;;;;5161724;23;20407;-70
2022/02/13 09:09:45;;;;;;;6.18;3.85;;;7.90;99.90;;;;;;5163858;22;20012;-70
2022/02/13 09:11:45;;;;;;;7.13;4.40;;;7.80;99.90;;;;;;5163005;22;20042;-70
2022/02/13 09:13:46;;;;;;;7.28;3.90;;;7.80;99.90;;;;;;5161852;23;20453;-70
2022/02/13 09:15:47;;;;;;;7.82;4.25;;;7.80;99.90;;;;;;5162876;22;20099;-70
2022/02/13 09:17:47;;;;;;;7.57;4.13;;;7.70;99.90;;;;;;5163244;22;20016;-70
2022/02/13 09:19:48;;;;;;;8.20;4.18;;;7.60;99.90;;;;;;5164469;22;20083;-70
2022/02/13 09:21:52;;;;;;;7.38;3.70;;;7.60;99.90;;;;;;5164568;22;20453;-71
2022/02/13 09:23:55;;;;;;;9.27;4.53;;;7.50;99.90;;;;;;5165791;22;20048;-71
2022/02/13 09:25:55;;;;;;;8.00;4.45;;;7.30;99.90;;;;;;5165291;22;20016;-71
2022/02/13 09:27:56;;;;;;;8.93;5.13;;;7.30;99.90;;;;;;5165716;22;20355;-71
2022/02/13 09:29:56;;;;;;;6.45;3.92;;;7.30;99.90;;;;;;5164616;22;20024;-70
2022/02/13 09:31:57;;;;;;;6.95;4.15;;;7.30;99.90;;;;;;5164603;22;20078;-71
2022/02/13 09:33:58;;;;;;;8.75;4.38;;;7.30;99.90;;;;;;5165201;22;20038;-71
2022/02/13 09:35:58;;;;;;;7.75;3.95;;;7.30;99.90;;;;;;5162373;23;20015;-70
2022/02/13 09:37:59;;;;;;;6.00;3.85;;;7.20;99.90;;;;;;5162959;23;20400;-71
2022/02/13 09:40:00;;;;;;;9.60;4.28;;;7.30;99.90;;;;;;5187820;22;20492;-70
2022/02/13 09:42:01;;;;;;;7.82;4.20;;;7.40;99.90;;;;;;5191486;22;20007;-70
2022/02/13 09:44:02;;;;;;;7.72;4.70;;;7.40;99.90;;;;;;5188467;22;20087;-70
2022/02/13 09:46:03;;;;;;;6.75;4.13;;;7.50;99.90;;;;;;5190056;22;20460;-70
2022/02/13 09:48:04;;;;;;;7.68;4.20;;;7.50;99.90;;;;;;5188398;22;20364;-70
2022/02/13 09:50:05;;;;;;;7.65;3.75;;;7.60;99.90;;;;;;5173190;22;20022;-70
2022/02/13 09:52:08;;;;;;;10.23;4.40;;;7.60;99.90;;;;;;5187340;22;20057;-70
2022/02/13 09:54:09;;;;;;;7.00;4.10;;;7.60;99.90;;;;;;5187819;22;20381;-70
2022/02/13 09:56:10;;;;;;;7.07;4.28;;;7.60;99.90;;;;;;5177871;22;20336;-70
2022/02/13 09:58:11;;;;;;;7.75;4.28;;;7.50;99.90;;;;;;5187343;22;20015;-70
2022/02/13 10:00:12;;;;;;;7.60;3.83;;;7.50;99.90;;;;;;5188986;22;20012;-70
2022/02/13 10:02:40;;;;;;;8.02;4.18;;;7.60;99.90;;;;;;5172013;22;20019;-70
2022/02/13 10:04:43;;;;;;;8.60;4.03;;;7.60;99.90;;;;;;5158563;23;20008;-70
2022/02/13 10:06:43;;;;;;;8.50;4.50;;;7.60;99.90;;;;;;5163283;22;20047;-70
2022/02/13 10:08:49;;;;;;;6.95;3.47;;;7.60;99.90;;;;;;5162139;22;20318;-71
2022/02/13 10:11:25;;;;;;;7.93;4.38;;;7.60;99.90;;;;;;5162480;22;20016;-70
2022/02/13 10:13:44;;;;;;;9.40;4.03;;;7.70;99.90;;;;;;5161060;23;20012;-70
2022/02/13 10:15:44;;;;;;;6.28;3.42;;;7.70;99.90;;;;;;5148745;23;20013;-70
2022/02/13 10:18:00;;;;;;;8.25;4.22;;;7.80;99.90;;;;;;5162506;22;20016;-70
2022/02/13 10:20:01;;;;;;;7.93;4.03;;;7.90;99.90;;;;;;5185180;22;20038;-70
2022/02/13 10:22:05;;;;;;;7.47;4.03;;;7.80;99.90;;;;;;5184617;22;20016;-70
2022/02/13 10:24:18;;;;;;;7.63;4.38;;;7.90;99.90;;;;;;5159670;23;20155;-70
2022/02/13 10:26:20;;;;;;;7.15;3.92;;;7.90;99.90;;;;;;5187248;22;20032;-70
2022/02/13 10:28:20;;;;;;;6.32;3.50;;;8.00;99.90;;;;;;5188652;22;20407;-70
2022/02/13 10:30:36;;;;;;;8.02;3.75;;;8.00;99.60;;;;;;5159228;23;20016;-70
2022/02/13 10:32:41;;;;;;;7.10;3.90;;;8.00;99.90;;;;;;5186116;22;20015;-70
2022/02/13 10:35:03;;;;;;;6.25;4.03;;;8.10;99.90;;;;;;5188179;22;20441;-70
2022/02/13 10:37:04;;;;;;;6.30;3.45;;;8.10;99.90;;;;;;5184454;22;20022;-70